Terminal Aerodrome Forecast
Issued by NWS Twin Cities, MN

Home | Current Version | Previous Version | Text Only | Print | Product List | Glossary Off
Versions: 1 2 3 4 5 6 7 8 9 10 11 12 13 14 15 16 17 18 19 20 21 22 23 24 25

263
FTUS43 KMPX 301733
TAFMSP
TAF
KMSP 301733Z 3018/0124 35006KT P6SM -RA BKN012 OVC020
      TEMPO 3018/3022 5SM -RA BKN009 OVC012
     FM302200 33008KT P6SM -SHRA SCT008 OVC012
     FM010200 30008KT 5SM -SHRA BR OVC008
      TEMPO 0103/0106 5SM -RASN
     FM010600 30008KT P6SM OVC006
     FM011500 30009KT P6SM OVC012
     FM011900 30008KT P6SM OVC022=

USA.gov is the U.S. government's official web portal to all federal, state and local government web resources and services.